Terminal Aerodrome Forecast
Issued by NWS Charleston, WV

Current Version | Previous Version | Text Only | Print | Product List | Glossary Off
Versions: 1 2 3 4 5 6 7 8 9 10 11 12 13 14 15 16 17 18 19 20 21 22 23 24

000
FTUS41 KRLX 302102 AAA
TAFPKB
TAF AMD
KPKB 302102Z 3021/3118 22006KT P6SM VCTS SCT040CB
     FM302200 VRB03KT P6SM SCT080
     FM311400 21006KT P6SM VCTS SCT040CB=

USA.gov is the U.S. government's official web portal to all federal, state and local government web resources and services.